Time;durP1;ratioP1;P1;durP2;ratioP2;P2;SDS_P1;SDS_P2;PMS_P1;PMS_P2;Temp;Humidity;BMP_temperature;BMP_pressure;BME280_temperature;BME280_humidity;BME280_pressure;Samples;Min_cycle;Max_cycle;Signal;HPM_P1;HPM_P2
2021/06/06 00:00:54;;;;;;;1.70;1.33;;;12.20;99.90;;;;;;4961864;28;20200;-86
2021/06/06 00:03:36;;;;;;;1.63;1.37;;;12.20;99.90;;;;;;4979282;28;20252;-87
2021/06/06 00:06:06;;;;;;;1.60;1.23;;;12.20;99.90;;;;;;4961382;28;20182;-86
2021/06/06 00:08:32;;;;;;;1.23;1.13;;;12.20;99.90;;;;;;4961699;28;20180;-87
2021/06/06 00:11:13;;;;;;;2.70;1.40;;;12.20;99.90;;;;;;4962334;28;20617;-87
2021/06/06 00:13:40;;;;;;;2.87;1.40;;;12.20;99.90;;;;;;4961780;28;20184;-87
2021/06/06 00:16:08;;;;;;;1.63;1.20;;;12.20;99.90;;;;;;4961884;28;20612;-87
2021/06/06 00:18:34;;;;;;;1.80;1.40;;;12.20;99.90;;;;;;4961267;28;20219;-86
2021/06/06 00:21:00;;;;;;;1.93;1.30;;;12.20;99.90;;;;;;4978336;28;20548;-86
2021/06/06 00:23:26;;;;;;;2.03;1.83;;;12.20;99.90;;;;;;4960646;28;20512;-87
2021/06/06 00:25:52;;;;;;;2.30;1.47;;;12.20;99.90;;;;;;4960900;28;20217;-87
2021/06/06 00:28:18;;;;;;;5.90;1.50;;;12.20;99.90;;;;;;4960125;28;20190;-87
2021/06/06 00:30:43;;;;;;;1.80;1.40;;;12.20;99.90;;;;;;4960329;28;20204;-87
2021/06/06 00:33:09;;;;;;;2.30;1.50;;;12.20;99.90;;;;;;4959976;28;20287;-87
2021/06/06 00:35:35;;;;;;;4.03;1.40;;;12.20;99.90;;;;;;4977438;28;20205;-87
2021/06/06 00:38:02;;;;;;;1.73;1.27;;;12.20;99.90;;;;;;4959720;28;20292;-87
2021/06/06 00:40:31;;;;;;;1.70;1.60;;;12.20;99.90;;;;;;4959468;28;20216;-87
2021/06/06 00:42:57;;;;;;;1.90;1.70;;;12.20;99.90;;;;;;4959482;28;20555;-87
2021/06/06 00:45:27;;;;;;;1.97;1.47;;;12.20;99.90;;;;;;4959306;28;20634;-87
2021/06/06 00:47:53;;;;;;;1.40;1.20;;;12.20;99.90;;;;;;4959419;28;20181;-87
2021/06/06 00:50:30;;;;;;;1.63;1.37;;;12.20;99.90;;;;;;4959172;28;20229;-87
2021/06/06 00:53:00;;;;;;;1.27;1.00;;;12.20;99.90;;;;;;4976968;28;20226;-87
2021/06/06 00:55:26;;;;;;;1.10;1.00;;;12.30;99.90;;;;;;4960828;28;20191;-87
2021/06/06 00:57:53;;;;;;;1.67;1.27;;;12.30;99.90;;;;;;4961268;28;20181;-88
2021/06/06 01:00:22;;;;;;;1.53;1.00;;;12.30;99.90;;;;;;4963580;28;20223;-87
2021/06/06 01:02:49;;;;;;;1.10;1.00;;;12.30;99.90;;;;;;4959308;28;20180;-87
2021/06/06 01:05:25;;;;;;;2.20;1.20;;;12.30;99.90;;;;;;4958753;28;20187;-87
2021/06/06 01:07:51;;;;;;;4.00;1.00;;;12.30;99.90;;;;;;4958387;28;20184;-87
2021/06/06 01:10:17;;;;;;;3.57;1.30;;;12.30;99.90;;;;;;4976151;28;20204;-86
2021/06/06 01:12:48;;;;;;;1.10;1.00;;;12.30;99.90;;;;;;4959066;28;20193;-87
2021/06/06 01:15:29;;;;;;;1.10;1.00;;;12.30;99.90;;;;;;4959992;28;20183;-87
2021/06/06 01:18:21;;;;;;;1.47;1.10;;;12.30;99.90;;;;;;4959268;28;20184;-87
2021/06/06 01:20:59;;;;;;;0.93;0.90;;;12.30;99.90;;;;;;4959251;28;20563;-86
2021/06/06 01:23:55;;;;;;;1.80;1.17;;;12.30;99.90;;;;;;4977228;28;20275;-87
2021/06/06 01:26:36;;;;;;;1.93;1.20;;;12.30;99.90;;;;;;4961389;28;20180;-87
2021/06/06 01:29:16;;;;;;;1.50;1.20;;;12.30;99.90;;;;;;4985021;28;20179;-87
2021/06/06 01:31:45;;;;;;;1.10;1.00;;;12.30;99.90;;;;;;4976163;28;20175;-87
2021/06/06 01:34:13;;;;;;;1.17;0.90;;;12.30;99.90;;;;;;4959218;28;20183;-87
2021/06/06 01:36:55;;;;;;;1.17;0.97;;;12.30;99.90;;;;;;4976454;28;20663;-87
2021/06/06 01:39:34;;;;;;;0.97;0.90;;;12.20;99.90;;;;;;4958424;28;20704;-87
2021/06/06 01:42:10;;;;;;;1.60;1.13;;;12.20;99.90;;;;;;4958644;28;20652;-87
2021/06/06 01:44:37;;;;;;;1.40;1.30;;;12.20;99.90;;;;;;4958504;28;20645;-87
2021/06/06 01:47:11;;;;;;;1.37;1.20;;;12.20;99.90;;;;;;4958404;28;20185;-88
2021/06/06 01:49:49;;;;;;;2.10;1.30;;;12.20;99.90;;;;;;4957861;28;20214;-88
2021/06/06 01:52:16;;;;;;;2.13;1.20;;;12.20;99.90;;;;;;4958318;28;20183;-88
2021/06/06 01:54:44;;;;;;;6.53;1.10;;;12.20;99.90;;;;;;4975219;28;20711;-88
2021/06/06 01:57:14;;;;;;;1.90;1.10;;;12.20;99.90;;;;;;4958453;28;20242;-87
2021/06/06 01:59:43;;;;;;;1.30;1.10;;;12.20;99.90;;;;;;4958121;28;20199;-87
2021/06/06 02:02:11;;;;;;;3.60;1.30;;;12.20;99.90;;;;;;4958346;28;20180;-87
2021/06/06 02:04:37;;;;;;;2.23;1.20;;;12.20;99.90;;;;;;4975593;28;20734;-88
2021/06/06 02:07:21;;;;;;;2.97;1.07;;;12.20;99.90;;;;;;4958735;28;20191;-88
2021/06/06 02:10:01;;;;;;;1.90;1.27;;;12.10;99.90;;;;;;4958171;28;20207;-88
2021/06/06 02:12:31;;;;;;;1.67;1.20;;;12.10;99.90;;;;;;4975387;28;20241;-87
2021/06/06 02:14:57;;;;;;;2.10;1.30;;;12.00;99.90;;;;;;4975411;28;20207;-88
2021/06/06 02:17:30;;;;;;;3.23;1.37;;;12.00;99.90;;;;;;4975354;28;20204;-88
2021/06/06 02:20:00;;;;;;;1.20;1.10;;;12.00;99.90;;;;;;4958053;28;20259;-88
2021/06/06 02:22:29;;;;;;;1.90;1.20;;;12.00;99.90;;;;;;4958639;28;20685;-88
2021/06/06 02:24:55;;;;;;;2.50;1.30;;;12.00;99.90;;;;;;4958816;28;20172;-88
2021/06/06 02:27:31;;;;;;;1.20;1.10;;;12.00;99.90;;;;;;4958424;28;20188;-87
2021/06/06 02:30:15;;;;;;;1.10;1.00;;;12.00;99.90;;;;;;4976451;28;20210;-88
2021/06/06 02:33:04;;;;;;;1.00;0.90;;;12.00;99.90;;;;;;4958541;28;20188;-87
2021/06/06 02:35:50;;;;;;;1.10;1.00;;;12.00;99.90;;;;;;4975337;28;20176;-87
2021/06/06 02:38:35;;;;;;;2.03;1.17;;;12.00;99.90;;;;;;4957349;28;20255;-87
2021/06/06 02:41:12;;;;;;;1.30;1.00;;;12.00;99.90;;;;;;4975280;28;20254;-88
2021/06/06 02:43:46;;;;;;;3.10;1.30;;;12.00;99.90;;;;;;4975336;28;20172;-88
2021/06/06 02:46:14;;;;;;;1.20;1.10;;;12.00;99.90;;;;;;4958184;28;20199;-88
2021/06/06 02:48:51;;;;;;;1.90;1.40;;;12.00;99.90;;;;;;4957588;28;20179;-88
2021/06/06 02:51:20;;;;;;;2.03;1.40;;;12.00;99.90;;;;;;4958124;28;20552;-88
2021/06/06 02:54:00;;;;;;;1.03;0.87;;;12.00;99.90;;;;;;4957918;28;20189;-88
2021/06/06 02:56:36;;;;;;;2.10;1.10;;;12.00;99.90;;;;;;4957719;28;20200;-88
2021/06/06 02:59:18;;;;;;;1.47;1.23;;;12.00;99.90;;;;;;4957743;28;20266;-88
2021/06/06 03:01:54;;;;;;;1.20;1.10;;;12.10;99.90;;;;;;4958170;28;20513;-88
2021/06/06 03:04:24;;;;;;;2.40;1.10;;;12.10;99.90;;;;;;4958131;28;20175;-88
2021/06/06 03:07:02;;;;;;;1.20;1.10;;;12.10;99.90;;;;;;4961452;28;20180;-88
2021/06/06 03:09:28;;;;;;;2.00;0.80;;;12.10;99.90;;;;;;4961533;28;20228;-88
2021/06/06 03:11:56;;;;;;;1.87;1.00;;;12.00;99.90;;;;;;4961786;28;20190;-88
2021/06/06 03:14:26;;;;;;;3.00;1.17;;;12.10;99.90;;;;;;4961794;28;20180;-88
2021/06/06 03:17:26;;;;;;;1.53;1.10;;;12.10;99.90;;;;;;4978927;28;20555;-88
2021/06/06 03:19:55;;;;;;;1.00;0.90;;;12.10;99.90;;;;;;4953100;28;20287;-88
2021/06/06 03:22:26;;;;;;;1.23;1.13;;;12.10;99.90;;;;;;4961663;28;20639;-88
2021/06/06 03:24:58;;;;;;;2.27;1.27;;;12.10;99.90;;;;;;4961585;28;20180;-88
2021/06/06 03:27:27;;;;;;;3.57;1.10;;;12.10;99.90;;;;;;4961729;28;20273;-88
2021/06/06 03:30:03;;;;;;;1.53;1.27;;;12.10;99.90;;;;;;4978225;28;20215;-88
2021/06/06 03:32:34;;;;;;;1.17;1.07;;;12.10;99.90;;;;;;4978561;28;20182;-88
2021/06/06 03:35:00;;;;;;;1.20;1.10;;;12.20;99.90;;;;;;4960895;28;20184;-88
2021/06/06 03:37:26;;;;;;;1.67;1.27;;;12.10;99.90;;;;;;4960997;28;20259;-88
2021/06/06 03:39:54;;;;;;;2.30;1.20;;;12.20;99.90;;;;;;4977974;28;20720;-88
2021/06/06 03:42:20;;;;;;;2.20;1.20;;;12.10;99.90;;;;;;4961285;28;20176;-88
2021/06/06 03:44:46;;;;;;;1.43;1.10;;;12.20;99.90;;;;;;4961507;28;20226;-88
2021/06/06 03:47:12;;;;;;;1.50;1.23;;;12.10;99.90;;;;;;4962900;28;20184;-89
2021/06/06 03:49:38;;;;;;;1.10;1.00;;;12.20;99.90;;;;;;4964360;28;20212;-89
2021/06/06 03:52:05;;;;;;;1.97;1.10;;;12.10;99.90;;;;;;4963761;28;20183;-88
2021/06/06 03:54:31;;;;;;;1.20;1.07;;;12.10;99.90;;;;;;4960685;28;20186;-88
2021/06/06 03:56:57;;;;;;;1.60;1.30;;;12.10;99.90;;;;;;4960709;28;20211;-88
2021/06/06 03:59:23;;;;;;;1.37;1.27;;;12.10;99.90;;;;;;4960836;28;20552;-88
2021/06/06 04:01:51;;;;;;;1.63;1.00;;;12.10;99.90;;;;;;4978389;28;20182;-87
2021/06/06 04:04:18;;;;;;;1.47;1.20;;;12.10;99.90;;;;;;4978080;28;20701;-89
2021/06/06 04:06:43;;;;;;;1.80;1.53;;;12.10;99.90;;;;;;4960148;28;20184;-88
2021/06/06 04:09:09;;;;;;;1.37;1.27;;;12.10;99.90;;;;;;4977579;28;20638;-88
2021/06/06 04:11:37;;;;;;;1.77;1.20;;;12.10;99.90;;;;;;4960255;28;20211;-87
2021/06/06 04:14:04;;;;;;;3.07;1.50;;;12.10;99.90;;;;;;4977441;28;20269;-88
2021/06/06 04:16:30;;;;;;;1.40;1.30;;;12.10;99.90;;;;;;4959804;28;20200;-88
2021/06/06 04:18:56;;;;;;;1.43;1.33;;;12.10;99.90;;;;;;4960169;28;20182;-88
2021/06/06 04:21:24;;;;;;;2.00;1.50;;;12.20;99.90;;;;;;4959837;28;20183;-88
2021/06/06 04:23:50;;;;;;;2.93;1.37;;;12.20;99.90;;;;;;4960354;28;20177;-88
2021/06/06 04:26:17;;;;;;;2.83;1.27;;;12.20;99.90;;;;;;4977514;28;20205;-88
2021/06/06 04:28:43;;;;;;;1.77;1.20;;;12.20;99.90;;;;;;4960137;28;20180;-87
2021/06/06 04:31:10;;;;;;;1.60;1.50;;;12.20;99.90;;;;;;4960657;28;20795;-87
2021/06/06 04:33:36;;;;;;;1.20;1.10;;;12.20;99.90;;;;;;4963239;28;20543;-88
2021/06/06 04:36:02;;;;;;;1.77;0.97;;;12.20;99.90;;;;;;4962991;28;20204;-88
2021/06/06 04:38:29;;;;;;;1.10;1.00;;;12.20;99.90;;;;;;4979729;28;20186;-87
2021/06/06 04:40:58;;;;;;;2.30;1.10;;;12.30;99.90;;;;;;4962826;28;20227;-88
2021/06/06 04:43:24;;;;;;;1.33;1.20;;;12.30;99.90;;;;;;4968838;28;20235;-88
2021/06/06 04:45:50;;;;;;;2.37;1.10;;;12.30;99.90;;;;;;4960700;28;20172;-88
2021/06/06 04:48:21;;;;;;;1.20;1.10;;;12.30;99.90;;;;;;4977649;28;20178;-88
2021/06/06 04:50:48;;;;;;;1.37;1.27;;;12.40;99.90;;;;;;4960248;28;20239;-88
2021/06/06 04:53:15;;;;;;;1.23;0.93;;;12.40;99.90;;;;;;4960070;28;20176;-88
2021/06/06 04:55:41;;;;;;;1.07;0.97;;;12.40;99.90;;;;;;4959816;28;20334;-88
2021/06/06 04:58:12;;;;;;;0.90;0.90;;;12.40;99.90;;;;;;4959877;28;20181;-88
2021/06/06 05:00:41;;;;;;;1.30;1.07;;;12.50;99.90;;;;;;4959963;28;20660;-88
2021/06/06 05:03:15;;;;;;;1.37;1.27;;;12.50;99.90;;;;;;4976863;28;20183;-89
2021/06/06 05:05:42;;;;;;;1.20;1.00;;;12.50;99.90;;;;;;4959688;28;20210;-88
2021/06/06 05:08:11;;;;;;;1.37;1.07;;;12.50;99.90;;;;;;4959663;28;20710;-88
2021/06/06 05:10:39;;;;;;;1.20;1.10;;;12.50;99.90;;;;;;4960065;28;20670;-89
2021/06/06 05:13:06;;;;;;;1.00;0.90;;;12.50;99.90;;;;;;4977178;28;20181;-88
2021/06/06 05:15:32;;;;;;;1.93;1.20;;;12.50;99.90;;;;;;4959434;28;20638;-88
2021/06/06 05:17:58;;;;;;;1.00;0.80;;;12.50;99.90;;;;;;4959662;28;20235;-88
2021/06/06 05:20:29;;;;;;;4.30;1.00;;;12.50;99.90;;;;;;4959500;28;20199;-88
2021/06/06 05:22:55;;;;;;;1.10;1.00;;;12.50;99.90;;;;;;4960254;28;20184;-88
2021/06/06 05:25:22;;;;;;;0.90;0.80;;;12.50;99.90;;;;;;4960040;28;20197;-88
2021/06/06 05:27:48;;;;;;;1.07;0.97;;;12.50;99.90;;;;;;4958259;28;20181;-88
2021/06/06 05:30:21;;;;;;;1.03;0.93;;;12.50;99.90;;;;;;4958936;28;20691;-88
2021/06/06 05:32:48;;;;;;;1.30;0.77;;;12.50;99.90;;;;;;4976875;28;20180;-88
2021/06/06 05:35:13;;;;;;;0.83;0.83;;;12.60;99.90;;;;;;4959142;28;20183;-88
2021/06/06 05:37:39;;;;;;;1.43;1.10;;;12.60;99.90;;;;;;4976542;28;20203;-88
2021/06/06 05:40:06;;;;;;;1.00;1.00;;;12.60;99.90;;;;;;4960082;28;20199;-88
2021/06/06 05:42:31;;;;;;;3.10;0.93;;;12.70;99.90;;;;;;4959785;28;20556;-88
2021/06/06 05:44:57;;;;;;;1.07;0.90;;;12.70;99.90;;;;;;4960213;28;20174;-89
2021/06/06 05:47:23;;;;;;;1.00;0.90;;;12.70;99.90;;;;;;4959439;28;20278;-88
2021/06/06 05:49:48;;;;;;;0.67;0.63;;;12.70;99.90;;;;;;4959748;28;20313;-89
2021/06/06 05:52:14;;;;;;;2.53;0.80;;;12.70;99.90;;;;;;4961818;28;20279;-90
2021/06/06 05:54:40;;;;;;;1.10;1.00;;;12.70;99.90;;;;;;4966286;28;20176;-90
2021/06/06 05:57:06;;;;;;;1.10;0.83;;;12.70;99.90;;;;;;4960192;28;20208;-89
2021/06/06 05:59:32;;;;;;;0.90;0.80;;;12.70;99.90;;;;;;4959616;28;20567;-89
2021/06/06 06:01:58;;;;;;;2.40;0.80;;;12.70;99.90;;;;;;4977640;28;20190;-89
2021/06/06 06:04:24;;;;;;;1.07;0.97;;;12.70;99.90;;;;;;4967610;28;20334;-89
2021/06/06 06:06:49;;;;;;;1.20;0.90;;;12.70;99.90;;;;;;4960657;28;20721;-89
2021/06/06 06:11:51;;;;;;;0.93;0.87;;;12.70;99.90;;;;;;5113694;23;20229;-89
2021/06/06 06:14:16;;;;;;;1.13;0.73;;;12.80;99.90;;;;;;4978637;28;20231;-89
2021/06/06 06:16:42;;;;;;;0.77;0.77;;;12.80;99.90;;;;;;4978190;28;20682;-89
2021/06/06 06:19:10;;;;;;;1.33;0.83;;;12.80;99.90;;;;;;4996461;28;20262;-89
2021/06/06 06:21:37;;;;;;;1.37;0.80;;;12.80;99.90;;;;;;4978776;28;20183;-89
2021/06/06 06:24:04;;;;;;;0.70;0.70;;;12.80;99.90;;;;;;4996055;28;20651;-89
2021/06/06 06:26:30;;;;;;;0.87;0.73;;;12.80;99.90;;;;;;4995516;28;20198;-89
2021/06/06 06:28:55;;;;;;;1.57;0.80;;;12.80;99.90;;;;;;4994788;28;20262;-89
2021/06/06 06:31:22;;;;;;;1.20;0.90;;;12.90;99.90;;;;;;4977054;28;20186;-89
2021/06/06 06:33:47;;;;;;;1.10;1.00;;;12.90;99.90;;;;;;4977430;28;20214;-89
2021/06/06 06:36:16;;;;;;;1.07;0.80;;;12.90;99.90;;;;;;4994712;28;20729;-89
2021/06/06 06:38:42;;;;;;;1.20;1.00;;;12.90;99.90;;;;;;4995145;28;20175;-89
2021/06/06 06:41:08;;;;;;;1.20;0.93;;;12.80;99.90;;;;;;4980573;28;20207;-89
2021/06/06 06:43:34;;;;;;;0.77;0.77;;;12.90;99.90;;;;;;4981408;28;20186;-91
2021/06/06 06:45:59;;;;;;;2.53;0.90;;;13.00;99.90;;;;;;4981404;28;20196;-90
2021/06/06 06:48:28;;;;;;;1.10;0.90;;;13.00;99.90;;;;;;4999065;28;20681;-90
2021/06/06 06:50:55;;;;;;;0.70;0.70;;;12.90;99.90;;;;;;4981191;28;20183;-90
2021/06/06 06:53:22;;;;;;;1.00;0.70;;;12.90;99.90;;;;;;4981417;28;20294;-90
2021/06/06 06:55:48;;;;;;;0.87;0.87;;;12.90;99.90;;;;;;4981138;28;20254;-90
2021/06/06 06:58:15;;;;;;;1.23;1.10;;;12.80;99.90;;;;;;4981216;28;20177;-90
2021/06/06 07:00:44;;;;;;;1.30;1.17;;;12.80;99.90;;;;;;4981046;28;20182;-89
2021/06/06 07:03:12;;;;;;;1.83;0.90;;;12.80;99.90;;;;;;4981428;28;20179;-90
2021/06/06 07:05:39;;;;;;;1.23;1.00;;;12.80;99.90;;;;;;4998540;28;20191;-89
2021/06/06 07:08:07;;;;;;;1.47;0.90;;;12.70;99.90;;;;;;4981068;28;20182;-89
2021/06/06 07:10:35;;;;;;;4.33;0.97;;;12.70;99.90;;;;;;4998470;28;20178;-89
2021/06/06 07:13:01;;;;;;;0.90;0.80;;;12.80;99.90;;;;;;4998040;28;20195;-89
2021/06/06 07:15:27;;;;;;;0.80;0.77;;;12.80;99.90;;;;;;4982015;28;20217;-89
2021/06/06 07:17:53;;;;;;;2.03;1.00;;;12.80;99.90;;;;;;4980828;28;20742;-89
2021/06/06 07:20:23;;;;;;;1.00;0.90;;;12.80;99.90;;;;;;4980614;28;20179;-89
2021/06/06 07:22:48;;;;;;;1.03;0.93;;;12.80;99.90;;;;;;4981097;28;20175;-89
2021/06/06 07:25:15;;;;;;;1.33;1.10;;;12.80;99.90;;;;;;4998139;28;20547;-89
2021/06/06 07:27:44;;;;;;;1.63;0.90;;;12.90;99.90;;;;;;4980536;28;20193;-89
2021/06/06 07:30:17;;;;;;;2.20;0.90;;;12.90;99.90;;;;;;4980197;28;20270;-89
2021/06/06 07:32:43;;;;;;;2.13;1.00;;;13.00;99.90;;;;;;4997852;28;20633;-89
2021/06/06 07:35:11;;;;;;;1.60;1.30;;;13.00;99.90;;;;;;4980376;28;20195;-90
2021/06/06 07:37:37;;;;;;;1.20;1.03;;;13.00;99.90;;;;;;4980293;28;20668;-90
2021/06/06 07:40:05;;;;;;;1.53;1.30;;;13.00;99.90;;;;;;4997749;28;20189;-89
2021/06/06 07:42:33;;;;;;;1.67;1.10;;;13.00;99.90;;;;;;4980281;28;20199;-90
2021/06/06 07:45:00;;;;;;;1.27;1.10;;;13.10;99.90;;;;;;4980302;28;20266;-89
2021/06/06 07:47:26;;;;;;;1.40;1.20;;;13.10;99.90;;;;;;4980405;28;20191;-89
2021/06/06 07:49:52;;;;;;;1.97;1.23;;;13.10;99.90;;;;;;4979761;28;20179;-89
2021/06/06 07:52:17;;;;;;;3.40;1.20;;;13.10;99.90;;;;;;4979992;28;20186;-90
2021/06/06 07:54:44;;;;;;;1.60;1.23;;;13.10;99.90;;;;;;4997896;28;20270;-89
2021/06/06 07:57:10;;;;;;;1.10;1.00;;;13.10;99.90;;;;;;4980115;28;20734;-90
2021/06/06 07:59:35;;;;;;;1.30;1.13;;;13.20;99.90;;;;;;4997870;28;20250;-89
2021/06/06 08:02:01;;;;;;;2.13;1.13;;;13.20;99.90;;;;;;4997141;28;20182;-89
2021/06/06 08:04:27;;;;;;;1.30;1.20;;;13.20;99.90;;;;;;4997680;28;20168;-89
2021/06/06 08:06:53;;;;;;;1.90;1.20;;;13.10;99.90;;;;;;4979874;28;20722;-89
2021/06/06 08:09:19;;;;;;;1.30;1.00;;;13.10;99.90;;;;;;4980364;28;20246;-89
2021/06/06 08:11:45;;;;;;;1.13;1.00;;;13.20;99.90;;;;;;4979363;28;20643;-89
2021/06/06 08:14:11;;;;;;;1.70;1.30;;;13.20;99.90;;;;;;4979570;28;20210;-89
2021/06/06 08:16:37;;;;;;;1.83;1.43;;;13.30;99.90;;;;;;4996810;28;20203;-89
2021/06/06 08:19:04;;;;;;;3.10;1.20;;;13.30;99.90;;;;;;4979541;28;20172;-89
2021/06/06 08:21:37;;;;;;;2.30;1.40;;;13.40;99.90;;;;;;4979489;28;20172;-89
2021/06/06 08:24:05;;;;;;;3.50;1.30;;;13.40;99.90;;;;;;4979604;28;20180;-88
2021/06/06 08:26:31;;;;;;;1.50;1.10;;;13.40;99.90;;;;;;4979481;28;20203;-88
2021/06/06 08:28:57;;;;;;;2.83;1.47;;;13.40;99.90;;;;;;4979543;28;20206;-89
2021/06/06 08:31:29;;;;;;;1.17;1.07;;;13.40;99.90;;;;;;4996106;28;20284;-88
2021/06/06 08:33:56;;;;;;;1.17;1.00;;;13.40;99.90;;;;;;4979599;28;20175;-88
2021/06/06 08:36:37;;;;;;;1.00;0.90;;;13.40;99.90;;;;;;4979197;28;20277;-89
2021/06/06 08:39:07;;;;;;;0.90;0.87;;;13.40;99.90;;;;;;4979156;28;20178;-88
2021/06/06 08:41:43;;;;;;;4.40;1.37;;;13.30;99.90;;;;;;4979086;28;20314;-88
2021/06/06 08:44:24;;;;;;;2.50;0.80;;;13.30;99.90;;;;;;4996681;28;20254;-89
2021/06/06 08:47:02;;;;;;;1.00;0.90;;;13.30;99.90;;;;;;4996357;28;20195;-88
2021/06/06 08:49:50;;;;;;;0.90;0.70;;;13.30;99.90;;;;;;4979406;28;20183;-88
2021/06/06 08:52:28;;;;;;;1.60;1.00;;;13.30;99.90;;;;;;4979798;28;20188;-88
2021/06/06 08:55:04;;;;;;;3.03;1.00;;;13.40;99.90;;;;;;4979793;28;20210;-88
2021/06/06 08:57:39;;;;;;;1.73;1.17;;;13.50;99.90;;;;;;4979367;28;20679;-88
2021/06/06 09:00:13;;;;;;;2.77;1.00;;;13.50;99.90;;;;;;4979015;28;20225;-88
2021/06/06 09:02:47;;;;;;;1.53;0.97;;;13.60;99.90;;;;;;4979951;28;20241;-88
2021/06/06 09:05:37;;;;;;;4.00;1.00;;;13.50;99.90;;;;;;4998499;28;20559;-87
2021/06/06 09:08:16;;;;;;;1.47;0.80;;;13.50;99.90;;;;;;4981516;28;20227;-87
2021/06/06 09:10:46;;;;;;;1.63;0.90;;;13.60;99.90;;;;;;4980803;28;20254;-87
2021/06/06 09:13:14;;;;;;;1.97;1.10;;;13.60;99.90;;;;;;4998154;28;20195;-88
2021/06/06 09:15:41;;;;;;;1.60;0.87;;;13.70;99.90;;;;;;4998133;28;20195;-88
2021/06/06 09:18:36;;;;;;;1.30;0.70;;;13.70;99.90;;;;;;4997799;28;20607;-88
2021/06/06 09:21:19;;;;;;;1.10;0.80;;;13.70;99.90;;;;;;4980269;28;20670;-88
2021/06/06 09:23:51;;;;;;;1.40;0.70;;;13.70;99.90;;;;;;4979525;28;20175;-89
2021/06/06 09:26:17;;;;;;;0.87;0.83;;;13.80;99.90;;;;;;4979200;28;20208;-88
2021/06/06 09:29:00;;;;;;;3.00;0.80;;;13.80;99.90;;;;;;4979347;28;20179;-88
2021/06/06 09:31:25;;;;;;;0.70;0.70;;;13.80;99.90;;;;;;4996786;28;20230;-88
2021/06/06 09:33:54;;;;;;;1.17;0.90;;;13.80;99.90;;;;;;4996514;28;20559;-88
2021/06/06 09:36:25;;;;;;;1.00;0.90;;;13.80;99.90;;;;;;4996047;28;20696;-88
2021/06/06 09:39:13;;;;;;;1.13;0.83;;;13.90;99.90;;;;;;4996029;28;20221;-88
2021/06/06 09:41:43;;;;;;;1.03;0.83;;;13.90;99.90;;;;;;4964642;28;20190;-88
2021/06/06 09:44:23;;;;;;;1.10;1.00;;;13.90;99.90;;;;;;4978407;28;20241;-88
2021/06/06 09:47:10;;;;;;;0.93;0.70;;;13.90;99.90;;;;;;4978253;28;20286;-88
2021/06/06 09:49:45;;;;;;;0.73;0.70;;;13.90;99.90;;;;;;4978382;28;20536;-88
2021/06/06 09:52:21;;;;;;;1.43;1.00;;;13.90;99.90;;;;;;4978097;28;20183;-89
2021/06/06 09:54:54;;;;;;;1.27;0.90;;;13.90;99.90;;;;;;4977885;28;20175;-89
2021/06/06 09:57:37;;;;;;;1.10;1.00;;;13.90;99.90;;;;;;4977897;28;20301;-88
2021/06/06 10:00:22;;;;;;;1.70;1.00;;;13.90;99.90;;;;;;4995193;28;20240;-89
2021/06/06 10:02:59;;;;;;;4.63;1.20;;;13.90;99.90;;;;;;4977945;28;20234;-88
2021/06/06 10:05:33;;;;;;;2.67;1.10;;;14.00;99.90;;;;;;4977727;28;20259;-89
2021/06/06 10:08:03;;;;;;;1.17;1.00;;;14.00;99.90;;;;;;4977700;28;20667;-89
2021/06/06 10:10:43;;;;;;;1.83;1.40;;;14.00;99.90;;;;;;4995048;28;20171;-89
2021/06/06 10:13:12;;;;;;;1.57;1.30;;;14.00;99.90;;;;;;4977565;28;20290;-89
2021/06/06 10:16:01;;;;;;;1.03;0.73;;;14.10;99.90;;;;;;4981159;28;20285;-89
2021/06/06 10:18:52;;;;;;;1.10;1.00;;;14.10;99.90;;;;;;4981686;28;20180;-89
2021/06/06 10:21:24;;;;;;;0.80;0.80;;;14.10;99.90;;;;;;4981450;28;20581;-89
2021/06/06 10:23:53;;;;;;;2.13;0.63;;;14.00;99.90;;;;;;4982360;28;20210;-89
2021/06/06 10:26:37;;;;;;;1.83;1.00;;;14.10;99.90;;;;;;4984816;28;20204;-89
2021/06/06 10:29:29;;;;;;;1.33;0.97;;;14.10;99.90;;;;;;4984507;28;20715;-90
2021/06/06 10:32:03;;;;;;;1.20;0.90;;;14.10;99.90;;;;;;4983711;28;20172;-89
2021/06/06 10:34:44;;;;;;;0.93;0.80;;;14.10;99.90;;;;;;4983895;28;20637;-89
2021/06/06 10:37:11;;;;;;;1.03;0.87;;;14.20;99.90;;;;;;5000990;28;20207;-89
2021/06/06 10:39:42;;;;;;;1.20;1.10;;;14.10;99.90;;;;;;4981551;28;20326;-89
2021/06/06 10:42:23;;;;;;;1.60;1.33;;;14.20;99.90;;;;;;4982691;28;20226;-89
2021/06/06 10:45:01;;;;;;;2.60;1.33;;;14.30;99.90;;;;;;5000010;28;20168;-89
2021/06/06 10:48:08;;;;;;;1.83;1.17;;;14.20;99.90;;;;;;4991471;28;20159;-89
2021/06/06 10:50:33;;;;;;;1.03;0.83;;;14.30;99.90;;;;;;4981880;28;20175;-89
2021/06/06 10:53:25;;;;;;;2.00;1.53;;;14.40;99.90;;;;;;4980446;28;20253;-90
2021/06/06 10:56:28;;;;;;;1.87;1.20;;;14.50;99.90;;;;;;4980671;28;20202;-89
2021/06/06 10:59:08;;;;;;;1.57;1.10;;;14.60;99.90;;;;;;4980844;28;20183;-89
2021/06/06 11:01:43;;;;;;;1.50;1.40;;;14.60;99.90;;;;;;4980632;28;20226;-90
2021/06/06 11:04:11;;;;;;;1.37;1.07;;;14.70;99.90;;;;;;4998746;28;20344;-89
2021/06/06 11:06:38;;;;;;;1.10;0.80;;;14.80;99.90;;;;;;4981090;28;20206;-89
2021/06/06 11:09:18;;;;;;;0.60;0.60;;;14.70;99.90;;;;;;4981179;28;20274;-91
2021/06/06 11:12:12;;;;;;;0.90;0.80;;;14.60;99.90;;;;;;4981762;28;20242;-89
2021/06/06 11:14:49;;;;;;;1.00;0.90;;;14.60;99.90;;;;;;4980582;28;20676;-90
2021/06/06 11:17:30;;;;;;;2.00;0.90;;;14.50;99.90;;;;;;4980758;28;20203;-89
2021/06/06 11:20:14;;;;;;;1.47;1.00;;;14.40;99.90;;;;;;4980549;28;20237;-90
2021/06/06 11:22:43;;;;;;;1.70;1.27;;;14.40;99.90;;;;;;4981850;28;20179;-90
2021/06/06 11:25:36;;;;;;;1.10;1.00;;;14.40;99.90;;;;;;4980989;28;20227;-90
2021/06/06 11:28:08;;;;;;;1.00;0.90;;;14.40;99.90;;;;;;4981952;28;20172;-90
2021/06/06 11:30:37;;;;;;;1.23;0.80;;;14.40;99.90;;;;;;4981375;28;20275;-90
2021/06/06 11:33:13;;;;;;;1.70;1.07;;;14.40;99.90;;;;;;4981516;28;20183;-90
2021/06/06 11:35:38;;;;;;;1.00;0.90;;;14.50;99.90;;;;;;4981521;28;20227;-90
2021/06/06 11:38:25;;;;;;;1.40;1.30;;;14.50;99.90;;;;;;4981357;28;20246;-90
2021/06/06 11:41:11;;;;;;;3.00;1.30;;;14.60;99.90;;;;;;4981105;28;20172;-89
2021/06/06 11:43:56;;;;;;;1.03;0.93;;;14.70;99.90;;;;;;4998891;28;20252;-90
2021/06/06 11:46:37;;;;;;;1.20;1.10;;;14.70;99.90;;;;;;4981646;28;20231;-90
2021/06/06 11:49:30;;;;;;;1.40;1.07;;;14.70;99.90;;;;;;4981203;28;20275;-90
2021/06/06 11:52:01;;;;;;;1.47;0.97;;;14.70;99.90;;;;;;4980737;28;20176;-90
2021/06/06 11:54:38;;;;;;;0.77;0.77;;;14.80;99.90;;;;;;4980620;28;20179;-90
2021/06/06 11:57:37;;;;;;;1.10;0.90;;;14.80;99.90;;;;;;4980823;28;20570;-90
2021/06/06 12:00:36;;;;;;;1.73;1.23;;;14.80;99.90;;;;;;4979785;28;20284;-90
2021/06/06 12:03:11;;;;;;;1.30;1.00;;;14.70;99.90;;;;;;4980370;28;20172;-89
2021/06/06 12:05:38;;;;;;;1.00;0.90;;;14.70;99.90;;;;;;4980392;28;20199;-90
2021/06/06 12:08:12;;;;;;;1.33;0.90;;;14.70;99.90;;;;;;4980066;28;20184;-89
2021/06/06 12:10:53;;;;;;;2.50;0.90;;;14.70;99.90;;;;;;4979719;28;20183;-90
2021/06/06 12:13:25;;;;;;;1.43;1.03;;;14.70;99.90;;;;;;4979796;28;20198;-89
2021/06/06 12:16:08;;;;;;;1.43;1.00;;;14.70;99.90;;;;;;4998973;28;20198;-91
2021/06/06 12:18:34;;;;;;;1.53;0.90;;;14.70;99.90;;;;;;4998407;28;20191;-90
2021/06/06 12:21:09;;;;;;;1.37;1.10;;;14.70;99.90;;;;;;4980426;28;20182;-90
2021/06/06 12:23:39;;;;;;;1.00;0.80;;;14.70;99.90;;;;;;4981603;28;20179;-90
2021/06/06 12:26:13;;;;;;;1.60;1.10;;;14.80;99.90;;;;;;4998376;28;20639;-89
2021/06/06 12:28:46;;;;;;;2.70;1.00;;;14.90;99.90;;;;;;4981309;28;20625;-89
2021/06/06 12:31:31;;;;;;;0.90;0.80;;;15.00;99.90;;;;;;4980580;28;20176;-89
2021/06/06 12:34:21;;;;;;;3.60;0.90;;;15.00;99.90;;;;;;4980409;28;20179;-88
2021/06/06 12:36:49;;;;;;;1.10;0.80;;;15.00;99.90;;;;;;4979326;28;20204;-89
2021/06/06 12:39:19;;;;;;;0.97;0.83;;;15.00;99.90;;;;;;4978432;28;20234;-89
2021/06/06 12:41:47;;;;;;;1.70;1.20;;;15.00;99.90;;;;;;4978676;28;20176;-89
2021/06/06 12:44:16;;;;;;;2.80;1.10;;;15.00;99.90;;;;;;4978848;28;20337;-89
2021/06/06 12:46:55;;;;;;;1.83;0.60;;;15.10;99.90;;;;;;4978791;28;20199;-89
2021/06/06 12:49:39;;;;;;;0.60;0.60;;;15.10;99.90;;;;;;4996107;28;20221;-89
2021/06/06 12:52:25;;;;;;;0.70;0.70;;;15.20;99.90;;;;;;4978375;28;20182;-89
2021/06/06 12:54:52;;;;;;;1.87;1.00;;;15.20;99.90;;;;;;4978680;28;20258;-89
2021/06/06 12:57:21;;;;;;;2.37;1.40;;;15.20;99.90;;;;;;4978561;28;20711;-89
2021/06/06 12:59:47;;;;;;;1.13;0.80;;;15.20;99.90;;;;;;4978662;28;20179;-88
2021/06/06 13:02:18;;;;;;;0.73;0.70;;;15.10;99.90;;;;;;4978439;28;20206;-88
2021/06/06 13:04:45;;;;;;;0.90;0.80;;;15.10;99.90;;;;;;4978261;28;20176;-89
2021/06/06 13:07:27;;;;;;;0.43;0.43;;;15.00;99.90;;;;;;4978805;28;20190;-89
2021/06/06 13:09:54;;;;;;;0.63;0.63;;;14.90;99.90;;;;;;4977978;28;20175;-88
2021/06/06 13:12:40;;;;;;;1.57;0.90;;;15.00;99.90;;;;;;4979733;28;20277;-88
2021/06/06 13:15:17;;;;;;;0.80;0.80;;;14.90;99.90;;;;;;4978447;28;20207;-88